createdAt,value
2017-09-06T00:01:07.624Z,12.83
2017-09-06T00:03:37.290Z,10.37
2017-09-06T00:06:06.352Z,14.80
2017-09-06T00:08:34.940Z,13.33
2017-09-06T00:11:03.588Z,11.53
2017-09-06T00:13:32.284Z,11.90
2017-09-06T00:16:00.651Z,15.90
2017-09-06T00:18:30.442Z,11.57
2017-09-06T00:20:59.476Z,11.40
2017-09-06T00:23:28.752Z,12.00
2017-09-06T00:25:58.268Z,13.13
2017-09-06T00:28:26.663Z,11.63
2017-09-06T00:30:55.080Z,12.30
2017-09-06T00:33:23.855Z,15.30
2017-09-06T00:35:52.267Z,13.13
2017-09-06T00:38:20.635Z,15.17
2017-09-06T00:40:49.741Z,14.43
2017-09-06T00:43:18.140Z,12.23
2017-09-06T00:45:46.527Z,20.73
2017-09-06T00:48:15.477Z,13.00
2017-09-06T00:50:43.857Z,15.23
2017-09-06T00:53:12.259Z,12.30
2017-09-06T00:55:41.747Z,12.57
2017-09-06T00:58:11.762Z,16.30
2017-09-06T01:00:40.150Z,11.90
2017-09-06T01:03:09.251Z,16.77
2017-09-06T01:05:37.600Z,17.00
2017-09-06T01:08:05.963Z,12.57
2017-09-06T01:10:35.264Z,13.80
2017-09-06T01:13:03.616Z,14.23
2017-09-06T01:15:32.875Z,20.20
2017-09-06T01:18:01.555Z,18.00
2017-09-06T01:20:30.692Z,14.57
2017-09-06T01:22:59.887Z,15.77
2017-09-06T01:25:28.923Z,17.23
2017-09-06T01:27:57.305Z,20.90
2017-09-06T01:30:25.718Z,14.07
2017-09-06T01:32:54.472Z,20.97
2017-09-06T01:35:22.879Z,22.83
2017-09-06T01:37:51.462Z,16.50
2017-09-06T01:40:20.115Z,14.43
2017-09-06T01:42:49.467Z,15.17
2017-09-06T01:45:18.386Z,24.83
2017-09-06T01:47:47.719Z,15.63
2017-09-06T01:50:16.326Z,18.50
2017-09-06T01:52:44.727Z,15.20
2017-09-06T01:55:14.129Z,17.20
2017-09-06T01:57:42.500Z,15.97
2017-09-06T02:00:10.864Z,15.97
2017-09-06T02:02:39.518Z,15.47
2017-09-06T02:05:07.885Z,17.30
2017-09-06T02:07:36.280Z,19.03
2017-09-06T02:10:05.341Z,18.23
2017-09-06T02:12:33.766Z,18.80
2017-09-06T02:15:03.605Z,15.90
2017-09-06T02:17:32.462Z,18.27
2017-09-06T02:20:01.133Z,17.93
2017-09-06T02:22:30.281Z,17.70
2017-09-06T02:24:59.258Z,15.13
2017-09-06T02:27:27.693Z,16.97
2017-09-06T02:29:57.046Z,23.73
2017-09-06T02:32:26.979Z,16.13
2017-09-06T02:34:55.406Z,17.43
2017-09-06T02:37:25.277Z,17.23
2017-09-06T02:39:53.963Z,15.37
2017-09-06T02:42:22.336Z,17.57
2017-09-06T02:44:50.751Z,20.00
2017-09-06T02:47:19.438Z,16.27
2017-09-06T02:49:48.358Z,14.87
2017-09-06T02:52:16.790Z,19.03
2017-09-06T02:54:45.654Z,15.50
2017-09-06T02:57:14.756Z,15.13
2017-09-06T02:59:43.153Z,17.07
2017-09-06T03:02:12.533Z,15.07
2017-09-06T03:04:41.032Z,17.00
2017-09-06T03:07:10.659Z,15.07
2017-09-06T03:09:39.410Z,14.70
2017-09-06T03:12:07.787Z,17.90
2017-09-06T03:14:36.162Z,21.23
2017-09-06T03:17:05.618Z,31.17
2017-09-06T03:19:34.754Z,16.13
2017-09-06T03:22:03.703Z,16.40
2017-09-06T03:24:32.350Z,18.93
2017-09-06T03:27:02.018Z,16.83
2017-09-06T03:29:30.654Z,16.50
2017-09-06T03:31:59.291Z,18.00
2017-09-06T03:34:28.432Z,15.10
2017-09-06T03:36:56.849Z,19.30
2017-09-06T03:39:26.532Z,14.63
2017-09-06T03:41:54.905Z,16.00
2017-09-06T03:44:23.360Z,15.60
2017-09-06T03:46:53.032Z,15.20
2017-09-06T03:49:21.463Z,25.60
2017-09-06T03:51:49.858Z,17.80
2017-09-06T03:54:18.581Z,16.17
2017-09-06T03:56:46.952Z,16.07
2017-09-06T03:59:15.319Z,18.87
2017-09-06T04:01:45.173Z,16.47
2017-09-06T04:04:14.323Z,28.63
2017-09-06T04:06:42.922Z,18.97
2017-09-06T04:09:11.605Z,17.40
2017-09-06T04:11:40.780Z,16.90
2017-09-06T04:14:09.131Z,21.83
2017-09-06T04:16:38.050Z,18.80
2017-09-06T04:19:06.424Z,17.07
2017-09-06T04:21:34.773Z,19.30
2017-09-06T04:24:03.429Z,20.93
2017-09-06T04:26:32.473Z,20.40
2017-09-06T04:29:00.858Z,22.90
2017-09-06T04:31:29.524Z,24.00
2017-09-06T04:33:57.903Z,21.80
2017-09-06T04:36:26.690Z,25.10
2017-09-06T04:38:55.608Z,20.60
2017-09-06T04:41:24.023Z,23.63
2017-09-06T04:43:52.380Z,23.13
2017-09-06T04:46:21.174Z,29.93
2017-09-06T04:48:50.467Z,22.93
2017-09-06T04:51:18.821Z,23.80
2017-09-06T04:53:47.536Z,23.53
2017-09-06T04:56:15.898Z,23.90
2017-09-06T04:58:44.272Z,27.57
2017-09-06T05:01:12.954Z,25.87
2017-09-06T05:03:41.316Z,28.97
2017-09-06T05:06:10.449Z,24.83
2017-09-06T05:08:39.424Z,31.23
2017-09-06T05:11:08.564Z,24.57
2017-09-06T05:13:37.040Z,27.30
2017-09-06T05:16:06.697Z,25.37
2017-09-06T05:18:35.048Z,28.97
2017-09-06T05:21:03.427Z,31.43
2017-09-06T05:23:32.120Z,30.90
2017-09-06T05:26:01.261Z,38.27
2017-09-06T05:28:29.642Z,25.47
2017-09-06T05:30:58.899Z,30.63
2017-09-06T05:33:28.028Z,24.70
2017-09-06T05:35:56.695Z,24.73
2017-09-06T05:38:25.374Z,22.27
2017-09-06T05:40:54.487Z,22.40
2017-09-06T05:43:22.833Z,25.20
2017-09-06T05:45:51.517Z,21.03
2017-09-06T05:48:19.900Z,18.37
2017-09-06T05:50:48.787Z,17.43
2017-09-06T05:53:17.654Z,18.07
2017-09-06T05:55:47.501Z,19.27
2017-09-06T05:58:15.872Z,15.93
2017-09-06T06:00:44.708Z,16.47
2017-09-06T06:03:13.565Z,15.20
2017-09-06T06:05:41.955Z,18.30
2017-09-06T06:08:12.594Z,15.97
2017-09-06T06:10:41.244Z,17.70
2017-09-06T06:13:10.460Z,13.93
2017-09-06T06:15:40.885Z,21.13
2017-09-06T06:18:09.304Z,14.50
2017-09-06T06:20:37.692Z,12.33
2017-09-06T06:23:06.344Z,11.37
2017-09-06T06:25:34.725Z,10.67
2017-09-06T06:28:03.080Z,10.73
2017-09-06T06:30:31.728Z,14.07
2017-09-06T06:33:00.074Z,10.07
2017-09-06T06:35:29.205Z,11.10
2017-09-06T06:37:58.068Z,9.53
2017-09-06T06:40:26.419Z,10.13
2017-09-06T06:42:54.865Z,10.97
2017-09-06T06:45:24.543Z,11.03
2017-09-06T06:47:53.603Z,9.60
2017-09-06T06:50:21.987Z,10.07
2017-09-06T06:52:50.723Z,9.73
2017-09-06T06:55:19.174Z,9.63
2017-09-06T06:57:47.554Z,11.07
2017-09-06T07:00:17.144Z,10.50
2017-09-06T07:02:46.286Z,10.53
2017-09-06T07:05:15.780Z,28.87
2017-09-06T07:07:44.429Z,10.40
2017-09-06T07:10:12.790Z,11.03
2017-09-06T07:12:41.142Z,21.63
2017-09-06T07:15:10.044Z,18.77
2017-09-06T07:17:38.432Z,18.10
2017-09-06T07:20:06.777Z,14.70
2017-09-06T07:22:35.475Z,14.90
2017-09-06T07:25:04.596Z,16.60
2017-09-06T07:27:33.664Z,19.60
2017-09-06T07:30:03.144Z,18.77
2017-09-06T07:32:31.498Z,18.20
2017-09-06T07:35:00.530Z,20.37
2017-09-06T07:37:29.225Z,13.70
2017-09-06T07:39:57.623Z,12.90
2017-09-06T07:42:26.557Z,16.73
2017-09-06T07:44:56.906Z,13.10
2017-09-06T07:47:26.020Z,14.23
2017-09-06T07:49:54.449Z,20.77
2017-09-06T07:52:23.142Z,14.73
2017-09-06T07:54:52.298Z,14.73
2017-09-06T07:57:20.933Z,14.47
2017-09-06T07:59:50.403Z,16.13
2017-09-06T08:02:19.015Z,14.93
2017-09-06T08:04:47.407Z,13.50
2017-09-06T08:07:16.308Z,14.13
2017-09-06T08:09:44.683Z,15.40
2017-09-06T08:12:13.054Z,16.73
2017-09-06T08:14:41.849Z,12.87
2017-09-06T08:17:10.200Z,11.87
2017-09-06T08:19:39.402Z,17.40
2017-09-06T08:22:08.115Z,9.30
2017-09-06T08:24:37.213Z,9.47
2017-09-06T08:27:05.652Z,10.77
2017-09-06T08:29:35.103Z,14.03
2017-09-06T08:32:03.516Z,11.23
2017-09-06T08:34:32.654Z,9.73
2017-09-06T08:37:05.857Z,9.50
2017-09-06T08:39:34.330Z,10.37
2017-09-06T08:42:02.715Z,10.37
2017-09-06T08:44:31.384Z,7.60
2017-09-06T08:47:00.452Z,11.03
2017-09-06T08:49:28.854Z,8.50
2017-09-06T08:51:58.648Z,7.50
2017-09-06T08:54:28.499Z,7.70
2017-09-06T08:56:57.599Z,10.87
2017-09-06T08:59:27.334Z,8.80
2017-09-06T09:01:55.674Z,10.90
2017-09-06T09:04:24.023Z,8.57
2017-09-06T09:06:52.769Z,11.63
2017-09-06T09:09:21.149Z,12.40
2017-09-06T09:11:49.503Z,11.23
2017-09-06T09:14:18.290Z,9.20
2017-09-06T09:16:47.416Z,8.97
2017-09-06T09:19:16.139Z,8.40
2017-09-06T09:21:44.898Z,8.27
2017-09-06T09:24:13.438Z,7.50
2017-09-06T09:26:41.990Z,8.40
2017-09-06T09:29:10.668Z,8.50
2017-09-06T09:31:39.914Z,10.23
2017-09-06T09:34:08.321Z,13.23
2017-09-06T09:36:37.082Z,8.03
2017-09-06T09:39:05.501Z,9.17
2017-09-06T09:41:33.894Z,11.47
2017-09-06T09:44:03.497Z,9.10
2017-09-06T09:46:33.375Z,10.53
2017-09-06T09:49:02.482Z,8.47
2017-09-06T09:51:32.015Z,9.03
2017-09-06T09:54:00.373Z,12.20
2017-09-06T09:56:28.744Z,9.90
2017-09-06T09:58:58.086Z,9.00
2017-09-06T10:01:26.434Z,9.10
2017-09-06T10:03:54.781Z,9.87
2017-09-06T10:06:23.407Z,10.93
2017-09-06T10:08:52.642Z,10.83
2017-09-06T10:11:21.958Z,9.47
2017-09-06T10:13:50.635Z,11.33
2017-09-06T10:16:19.124Z,12.30
2017-09-06T10:18:47.511Z,12.33
2017-09-06T10:21:16.674Z,13.70
2017-09-06T10:23:45.079Z,13.10
2017-09-06T10:26:14.013Z,18.73
2017-09-06T10:28:43.790Z,16.80
2017-09-06T10:31:12.748Z,11.60
2017-09-06T10:33:41.137Z,11.00
2017-09-06T10:36:10.022Z,11.43
2017-09-06T10:38:38.735Z,12.90
2017-09-06T10:41:07.110Z,11.30
2017-09-06T10:43:36.814Z,10.50
2017-09-06T10:46:05.660Z,11.00
2017-09-06T10:48:34.022Z,13.77
2017-09-06T10:51:03.516Z,11.80
2017-09-06T10:53:31.932Z,10.50
2017-09-06T10:56:00.304Z,12.03
2017-09-06T10:58:29.875Z,10.93
2017-09-06T11:00:59.067Z,10.43
2017-09-06T11:03:28.324Z,9.80
2017-09-06T11:05:58.139Z,9.53
2017-09-06T11:08:26.518Z,7.87
2017-09-06T11:10:54.889Z,6.70
2017-09-06T11:13:24.510Z,7.90
2017-09-06T11:15:53.209Z,7.40
2017-09-06T11:18:21.573Z,6.63
2017-09-06T11:20:50.327Z,6.27
2017-09-06T11:23:18.917Z,5.40
2017-09-06T11:25:47.714Z,5.10
2017-09-06T11:28:16.699Z,6.03
2017-09-06T11:30:45.722Z,5.10
2017-09-06T11:33:14.085Z,8.30
2017-09-06T11:35:43.426Z,5.13
2017-09-06T11:38:11.815Z,4.60
2017-09-06T11:40:40.181Z,5.70
2017-09-06T11:43:09.087Z,5.13
2017-09-06T11:45:37.464Z,5.43
2017-09-06T11:48:06.567Z,4.07
2017-09-06T11:50:36.033Z,4.60
2017-09-06T11:53:04.968Z,4.10
2017-09-06T11:55:33.654Z,3.80
2017-09-06T11:58:02.316Z,6.27
2017-09-06T12:00:30.702Z,5.53
2017-09-06T12:02:59.176Z,4.00
2017-09-06T12:05:28.878Z,4.20
2017-09-06T12:07:57.233Z,3.80
2017-09-06T12:10:25.580Z,10.23
2017-09-06T12:12:54.381Z,5.63
2017-09-06T12:15:24.254Z,4.40
2017-09-06T12:17:52.605Z,4.40
2017-09-06T12:20:21.598Z,4.43
2017-09-06T12:22:50.163Z,4.70
2017-09-06T12:25:19.336Z,5.57
2017-09-06T12:27:48.915Z,4.57
2017-09-06T12:30:17.267Z,4.53
2017-09-06T12:32:45.622Z,4.90
2017-09-06T12:35:14.310Z,6.27
2017-09-06T12:37:42.660Z,6.80
2017-09-06T12:40:11.026Z,8.20
2017-09-06T12:42:40.318Z,7.20
2017-09-06T12:45:08.661Z,7.80
2017-09-06T12:47:37.003Z,8.67
2017-09-06T12:50:05.634Z,9.20
2017-09-06T12:52:33.970Z,9.40
2017-09-06T12:55:02.314Z,8.40
2017-09-06T12:57:31.996Z,7.00
2017-09-06T13:00:00.360Z,7.07
2017-09-06T13:02:29.532Z,6.10
2017-09-06T13:04:59.233Z,5.90
2017-09-06T13:07:28.133Z,7.67
2017-09-06T13:09:56.614Z,6.93
2017-09-06T13:12:27.291Z,7.37
2017-09-06T13:14:56.204Z,5.23
2017-09-06T13:17:24.681Z,3.43
2017-09-06T13:19:53.563Z,3.33
2017-09-06T13:22:21.899Z,2.97
2017-09-06T13:24:52.205Z,2.60
2017-09-06T13:27:20.862Z,2.70
2017-09-06T13:29:49.243Z,1.63
2017-09-06T13:32:18.498Z,3.03
2017-09-06T13:34:47.885Z,1.20
2017-09-06T13:37:16.232Z,3.50
2017-09-06T13:39:44.626Z,1.53
2017-09-06T13:42:13.555Z,0.90
2017-09-06T13:44:42.074Z,0.87
2017-09-06T13:47:11.326Z,0.93
2017-09-06T13:49:40.051Z,0.90
2017-09-06T13:52:09.194Z,0.87
2017-09-06T13:54:37.933Z,0.80
2017-09-06T13:57:08.493Z,0.73
2017-09-06T13:59:37.896Z,0.60
2017-09-06T14:02:07.015Z,0.60
2017-09-06T14:04:36.331Z,0.80
2017-09-06T14:07:05.452Z,0.63
2017-09-06T14:09:33.855Z,1.13
2017-09-06T14:12:03.875Z,1.33
2017-09-06T14:14:32.466Z,1.90
2017-09-06T14:17:02.165Z,0.90
2017-09-06T14:19:31.059Z,1.93
2017-09-06T14:22:00.330Z,0.87
2017-09-06T14:24:29.044Z,3.13
2017-09-06T14:26:59.152Z,2.70
2017-09-06T14:29:28.297Z,3.50
2017-09-06T14:31:57.932Z,4.17
2017-09-06T14:34:26.607Z,2.00
2017-09-06T14:36:55.178Z,4.73
2017-09-06T14:39:24.429Z,5.17
2017-09-06T14:41:53.353Z,5.23
2017-09-06T14:44:21.745Z,3.87
2017-09-06T14:46:50.096Z,3.50
2017-09-06T14:49:19.599Z,9.50
2017-09-06T14:51:47.981Z,4.77
2017-09-06T14:54:16.381Z,3.50
2017-09-06T14:56:45.255Z,5.90
2017-09-06T14:59:15.243Z,4.70
2017-09-06T15:01:43.663Z,7.17
2017-09-06T15:04:12.488Z,9.77
2017-09-06T15:06:40.861Z,8.57
2017-09-06T15:09:09.648Z,13.73
2017-09-06T15:11:38.805Z,4.93
2017-09-06T15:14:07.690Z,5.10
2017-09-06T15:16:36.062Z,21.37
2017-09-06T15:19:04.790Z,8.00
2017-09-06T15:21:34.154Z,11.10
2017-09-06T15:24:02.490Z,16.50
2017-09-06T15:26:31.342Z,6.87
2017-09-06T15:28:59.691Z,2.60
2017-09-06T15:31:28.612Z,14.63
2017-09-06T15:33:57.505Z,13.80
2017-09-06T15:36:25.948Z,8.03
2017-09-06T15:38:54.326Z,6.50
2017-09-06T15:41:23.737Z,12.00
2017-09-06T15:43:52.854Z,5.93
2017-09-06T15:46:22.661Z,8.30
2017-09-06T15:48:51.255Z,9.10
2017-09-06T15:51:19.610Z,7.73
2017-09-06T15:53:47.960Z,12.50
2017-09-06T15:56:16.894Z,21.03
2017-09-06T15:58:45.255Z,10.70
2017-09-06T16:01:14.341Z,12.70
2017-09-06T16:03:43.471Z,8.20
2017-09-06T16:06:13.710Z,14.27
2017-09-06T16:08:42.071Z,8.03
2017-09-06T16:11:11.167Z,15.40
2017-09-06T16:13:39.614Z,2.10
2017-09-06T16:16:07.974Z,15.17
2017-09-06T16:18:37.957Z,16.87
2017-09-06T16:21:06.325Z,14.47
2017-09-06T16:23:34.676Z,10.47
2017-09-06T16:26:03.733Z,6.97
2017-09-06T16:28:32.093Z,6.80
2017-09-06T16:31:01.201Z,6.77
2017-09-06T16:33:30.712Z,4.40
2017-09-06T16:35:59.148Z,16.90
2017-09-06T16:38:28.477Z,7.37
2017-09-06T16:40:58.298Z,7.40
2017-09-06T16:43:26.662Z,3.73
2017-09-06T16:45:55.866Z,7.03
2017-09-06T16:48:24.603Z,7.00
